Time;durP1;ratioP1;P1;durP2;ratioP2;P2;SDS_P1;SDS_P2;PMS_P1;PMS_P2;Temp;Humidity;BMP_temperature;BMP_pressure;BME280_temperature;BME280_humidity;BME280_pressure;Samples;Min_cycle;Max_cycle;Signal;HPM_P1;HPM_P2
2020/12/14 00:00:41;;;;;;;18.50;7.80;;;3.60;79.90;;;;;;4905789;29;20071;-83
2020/12/14 00:03:06;;;;;;;15.57;7.22;;;3.60;79.80;;;;;;4910521;29;20028;-83
2020/12/14 00:05:32;;;;;;;14.77;6.47;;;3.60;79.90;;;;;;4896767;29;20036;-83
2020/12/14 00:07:58;;;;;;;18.55;7.28;;;3.60;79.80;;;;;;4900415;29;20028;-82
2020/12/14 00:10:24;;;;;;;16.17;7.18;;;3.60;79.80;;;;;;4893917;29;20504;-82
2020/12/14 00:12:49;;;;;;;14.23;6.38;;;3.60;79.80;;;;;;4885601;29;20123;-82
2020/12/14 00:15:15;;;;;;;16.35;7.32;;;3.60;79.70;;;;;;4916926;29;20519;-82
2020/12/14 00:17:40;;;;;;;18.20;7.82;;;3.60;79.80;;;;;;4900196;29;20024;-82
2020/12/14 00:20:06;;;;;;;15.20;6.78;;;3.60;79.70;;;;;;4892662;29;20028;-83
2020/12/14 00:22:33;;;;;;;19.92;6.45;;;3.50;79.60;;;;;;4913302;29;20119;-83
2020/12/14 00:24:59;;;;;;;15.13;6.68;;;3.50;79.70;;;;;;4900071;29;20024;-83
2020/12/14 00:27:25;;;;;;;13.13;6.20;;;3.50;79.60;;;;;;4885250;29;20059;-82
2020/12/14 00:29:51;;;;;;;14.15;6.10;;;3.40;79.50;;;;;;4887503;29;20063;-82
2020/12/14 00:32:16;;;;;;;15.10;6.47;;;3.40;79.50;;;;;;4910368;29;20378;-82
2020/12/14 00:34:42;;;;;;;14.50;5.63;;;3.30;79.30;;;;;;4891275;29;20031;-82
2020/12/14 00:37:08;;;;;;;16.02;7.20;;;3.30;79.10;;;;;;4916542;29;20111;-83
2020/12/14 00:39:34;;;;;;;13.98;5.97;;;3.20;79.00;;;;;;4916651;29;20107;-79
2020/12/14 00:42:00;;;;;;;15.93;7.15;;;3.10;78.90;;;;;;4916473;29;20508;-81
2020/12/14 00:44:25;;;;;;;13.63;6.13;;;3.00;79.10;;;;;;4906670;29;20047;-81
2020/12/14 00:46:51;;;;;;;16.88;7.45;;;3.00;79.20;;;;;;4909109;29;20075;-81
2020/12/14 00:49:17;;;;;;;20.15;7.00;;;3.00;79.20;;;;;;4916397;29;20389;-81
2020/12/14 00:51:43;;;;;;;16.83;6.55;;;2.90;79.00;;;;;;4909733;29;20024;-81
2020/12/14 00:54:08;;;;;;;15.65;6.32;;;2.90;79.10;;;;;;4916547;29;20111;-82
2020/12/14 00:56:35;;;;;;;15.90;6.95;;;2.90;79.20;;;;;;4899419;29;20036;-80
2020/12/14 00:59:00;;;;;;;12.52;5.80;;;2.80;79.20;;;;;;4916485;29;20028;-82
2020/12/14 01:01:27;;;;;;;17.10;7.70;;;2.80;79.30;;;;;;4916483;29;20048;-82
2020/12/14 01:03:53;;;;;;;17.65;7.85;;;2.70;79.10;;;;;;4899222;29;20441;-82
2020/12/14 01:06:19;;;;;;;15.60;6.28;;;2.70;79.20;;;;;;4894345;29;20032;-81
2020/12/14 01:08:44;;;;;;;14.60;4.97;;;2.70;79.30;;;;;;4899500;29;20029;-82
2020/12/14 01:11:11;;;;;;;16.58;6.35;;;2.70;79.40;;;;;;4909372;29;20518;-80
2020/12/14 01:13:37;;;;;;;13.88;6.07;;;2.70;79.80;;;;;;4913538;29;20024;-79
2020/12/14 01:16:07;;;;;;;12.70;5.82;;;2.80;79.70;;;;;;4906982;29;20457;-84
2020/12/14 01:18:33;;;;;;;12.23;5.45;;;2.80;79.80;;;;;;4899429;29;20139;-81
2020/12/14 01:20:58;;;;;;;14.52;6.30;;;2.80;80.00;;;;;;4900079;29;20110;-82
2020/12/14 01:23:24;;;;;;;11.98;5.20;;;2.80;79.90;;;;;;4878860;29;20028;-82
2020/12/14 01:25:49;;;;;;;14.93;6.70;;;2.90;79.90;;;;;;4910218;29;20115;-82
2020/12/14 01:28:15;;;;;;;17.13;7.63;;;2.90;79.90;;;;;;4887411;29;20036;-82
2020/12/14 01:30:41;;;;;;;15.15;7.30;;;2.90;79.90;;;;;;4899055;29;20481;-82
2020/12/14 01:33:06;;;;;;;15.68;6.38;;;2.90;80.10;;;;;;4906664;29;20028;-82
2020/12/14 01:35:32;;;;;;;16.38;6.25;;;2.90;79.90;;;;;;4884442;29;20062;-82
2020/12/14 01:37:57;;;;;;;18.80;7.28;;;3.00;80.10;;;;;;4888186;29;20024;-81
2020/12/14 01:40:23;;;;;;;15.75;6.20;;;3.00;79.80;;;;;;4914479;29;20043;-82
2020/12/14 01:42:49;;;;;;;15.70;6.35;;;2.90;79.50;;;;;;4898802;29;20020;-81
2020/12/14 01:45:16;;;;;;;18.10;7.35;;;2.90;79.60;;;;;;4905965;29;20051;-82
2020/12/14 01:47:44;;;;;;;13.23;5.88;;;2.90;79.60;;;;;;4899241;29;20115;-82
2020/12/14 01:50:12;;;;;;;15.10;5.55;;;2.80;79.40;;;;;;4902083;29;20156;-82
2020/12/14 01:52:40;;;;;;;13.85;6.03;;;2.80;79.60;;;;;;4916183;29;20063;-82
2020/12/14 01:55:08;;;;;;;16.83;6.25;;;2.80;79.70;;;;;;4898664;29;20028;-81
2020/12/14 01:57:37;;;;;;;14.52;6.13;;;2.80;79.80;;;;;;4903408;29;20027;-81
2020/12/14 02:00:07;;;;;;;16.15;6.45;;;2.80;79.90;;;;;;4915778;29;20080;-82
2020/12/14 02:02:33;;;;;;;14.75;6.82;;;2.80;79.70;;;;;;4919547;29;20075;-82
2020/12/14 02:05:00;;;;;;;14.73;6.07;;;2.80;80.00;;;;;;4904916;29;20462;-82
2020/12/14 02:07:27;;;;;;;15.13;6.47;;;2.90;80.00;;;;;;4905517;29;20028;-82
2020/12/14 02:09:53;;;;;;;16.63;6.25;;;2.90;80.00;;;;;;4908220;29;20020;-81
2020/12/14 02:12:24;;;;;;;15.55;6.57;;;2.80;80.00;;;;;;4899414;29;20028;-80
2020/12/14 02:14:54;;;;;;;18.00;6.90;;;2.90;79.90;;;;;;4904884;29;20041;-80
2020/12/14 02:17:21;;;;;;;14.60;6.60;;;2.90;80.00;;;;;;4916612;29;20028;-81
2020/12/14 02:19:48;;;;;;;16.55;6.53;;;2.80;79.70;;;;;;4908923;29;20035;-80
2020/12/14 02:22:17;;;;;;;27.55;9.82;;;2.90;79.80;;;;;;4918906;29;20071;-81
2020/12/14 02:24:45;;;;;;;29.23;8.25;;;2.80;79.60;;;;;;4888150;29;20028;-81
2020/12/14 02:27:14;;;;;;;24.67;9.18;;;2.80;79.50;;;;;;4918966;29;20028;-82
2020/12/14 02:29:42;;;;;;;22.33;8.10;;;2.70;79.30;;;;;;4918859;29;20020;-82
2020/12/14 02:32:11;;;;;;;16.08;7.10;;;2.80;79.70;;;;;;4927028;29;20056;-81
2020/12/14 02:34:41;;;;;;;14.55;5.28;;;2.70;79.70;;;;;;4901898;29;20024;-81
2020/12/14 02:37:08;;;;;;;16.10;6.05;;;2.80;79.80;;;;;;4901966;29;20031;-81
2020/12/14 02:39:37;;;;;;;14.65;5.78;;;2.80;79.90;;;;;;4904574;29;20028;-82
2020/12/14 02:42:07;;;;;;;11.02;4.68;;;2.70;79.40;;;;;;4920342;29;20063;-82
2020/12/14 02:44:33;;;;;;;12.10;5.05;;;2.70;79.70;;;;;;4917330;29;20028;-82
2020/12/14 02:46:58;;;;;;;10.23;4.60;;;2.70;79.50;;;;;;4890925;29;20392;-82
2020/12/14 02:49:24;;;;;;;11.02;4.55;;;2.60;79.60;;;;;;4889677;29;20042;-82
2020/12/14 02:51:49;;;;;;;14.68;4.88;;;2.60;79.90;;;;;;4893222;29;20036;-81
2020/12/14 02:54:15;;;;;;;15.25;5.95;;;2.60;79.70;;;;;;4909366;29;20675;-81
2020/12/14 02:56:43;;;;;;;11.63;4.90;;;2.60;79.80;;;;;;4885662;29;20034;-81
2020/12/14 02:59:15;;;;;;;12.38;4.53;;;2.60;79.70;;;;;;4918585;29;20106;-81
2020/12/14 03:01:41;;;;;;;11.35;5.10;;;2.60;79.90;;;;;;4891753;29;20039;-81
2020/12/14 03:04:07;;;;;;;13.98;5.80;;;2.70;80.10;;;;;;4910179;29;20028;-82
2020/12/14 03:06:33;;;;;;;10.40;4.68;;;2.70;80.00;;;;;;4901605;29;20054;-82
2020/12/14 03:08:58;;;;;;;12.27;4.47;;;2.70;80.00;;;;;;4917982;29;20480;-82
2020/12/14 03:11:24;;;;;;;10.57;4.40;;;2.70;80.00;;;;;;4907909;29;20036;-82
2020/12/14 03:13:50;;;;;;;13.23;5.30;;;2.70;80.10;;;;;;4909090;29;20020;-82
2020/12/14 03:16:17;;;;;;;11.85;4.95;;;2.70;80.10;;;;;;4892475;29;20048;-82
2020/12/14 03:18:43;;;;;;;12.02;4.53;;;2.80;80.10;;;;;;4910392;29;20376;-82
2020/12/14 03:21:09;;;;;;;9.80;4.25;;;2.80;80.20;;;;;;4907587;29;20043;-81
2020/12/14 03:23:35;;;;;;;13.23;4.57;;;2.80;80.20;;;;;;4910653;29;20020;-81
2020/12/14 03:26:01;;;;;;;18.30;7.63;;;2.90;80.10;;;;;;4916917;29;20032;-82
2020/12/14 03:28:26;;;;;;;12.88;5.00;;;2.80;80.00;;;;;;4901042;29;20035;-82
2020/12/14 03:30:52;;;;;;;12.73;4.72;;;2.80;79.70;;;;;;4889916;29;20059;-85
2020/12/14 03:33:18;;;;;;;20.98;6.82;;;2.80;80.10;;;;;;4901433;29;20051;-85
2020/12/14 03:35:47;;;;;;;18.92;6.45;;;2.80;80.10;;;;;;4907346;29;20433;-81
2020/12/14 03:38:16;;;;;;;18.63;7.30;;;2.80;80.20;;;;;;4917866;29;20051;-81
2020/12/14 03:40:43;;;;;;;13.65;6.78;;;2.80;80.20;;;;;;4903924;29;20095;-81
2020/12/14 03:43:09;;;;;;;14.93;5.57;;;2.80;80.00;;;;;;4900728;29;20032;-81
2020/12/14 03:45:34;;;;;;;17.25;4.80;;;2.80;80.20;;;;;;4889089;29;20033;-81
2020/12/14 03:48:00;;;;;;;13.57;5.60;;;2.90;80.40;;;;;;4900595;29;20040;-81
2020/12/14 03:50:26;;;;;;;14.07;5.25;;;2.90;80.30;;;;;;4876456;29;20032;-83
2020/12/14 03:52:52;;;;;;;16.23;6.65;;;2.90;80.40;;;;;;4870762;29;20029;-83
2020/12/14 03:55:17;;;;;;;16.15;6.03;;;2.90;80.30;;;;;;4903693;29;20155;-81
2020/12/14 03:57:43;;;;;;;13.07;6.03;;;3.00;80.50;;;;;;4910755;29;20071;-81
2020/12/14 04:00:09;;;;;;;13.88;5.38;;;3.00;80.60;;;;;;4901396;29;20028;-81
2020/12/14 04:02:34;;;;;;;16.02;6.05;;;3.10;80.70;;;;;;4917435;29;20452;-81
2020/12/14 04:05:00;;;;;;;14.32;5.70;;;3.10;80.50;;;;;;4873585;29;20381;-81
2020/12/14 04:07:27;;;;;;;18.73;7.68;;;3.10;80.50;;;;;;4888872;29;20131;-82
2020/12/14 04:09:52;;;;;;;21.80;7.95;;;3.10;80.50;;;;;;4888454;29;20529;-82
2020/12/14 04:12:18;;;;;;;19.35;8.52;;;3.20;80.90;;;;;;4889566;29;20024;-82
2020/12/14 04:14:43;;;;;;;19.42;7.55;;;3.30;80.90;;;;;;4906901;29;20524;-82
2020/12/14 04:17:09;;;;;;;19.42;8.02;;;3.40;81.20;;;;;;4929175;29;20036;-81
2020/12/14 04:19:34;;;;;;;16.00;6.85;;;3.40;80.90;;;;;;4900072;29;20032;-81
2020/12/14 04:22:00;;;;;;;19.20;8.50;;;3.50;80.60;;;;;;4889545;29;20036;-81
2020/12/14 04:24:26;;;;;;;19.52;7.47;;;3.50;80.80;;;;;;4893546;29;20032;-81
2020/12/14 04:26:53;;;;;;;22.60;8.95;;;3.50;80.60;;;;;;4900051;29;20020;-81
2020/12/14 04:29:19;;;;;;;19.45;8.45;;;3.50;80.60;;;;;;4910042;29;20032;-81
2020/12/14 04:31:45;;;;;;;21.00;8.23;;;3.50;80.90;;;;;;4900367;29;20449;-81
2020/12/14 04:34:10;;;;;;;16.42;7.80;;;3.60;80.70;;;;;;4899694;29;20059;-81
2020/12/14 04:36:36;;;;;;;16.02;6.45;;;3.60;80.80;;;;;;4891327;29;20400;-80
2020/12/14 04:39:03;;;;;;;21.50;7.68;;;3.60;80.70;;;;;;4899715;29;20028;-80
2020/12/14 04:41:29;;;;;;;21.73;8.77;;;3.60;80.60;;;;;;4905448;29;20062;-81
2020/12/14 04:43:58;;;;;;;16.85;6.90;;;3.60;80.60;;;;;;4900390;29;20028;-81
2020/12/14 04:46:25;;;;;;;17.55;7.53;;;3.70;81.00;;;;;;4925797;29;20068;-81
2020/12/14 04:48:52;;;;;;;15.77;6.72;;;3.80;80.90;;;;;;4896178;29;20474;-81
2020/12/14 04:51:18;;;;;;;14.90;6.82;;;3.80;80.80;;;;;;4905538;29;20036;-81
2020/12/14 04:53:46;;;;;;;14.07;6.20;;;3.90;81.10;;;;;;4888436;29;20024;-81
2020/12/14 04:56:17;;;;;;;14.65;6.35;;;3.90;80.90;;;;;;4909790;29;20039;-80
2020/12/14 04:58:43;;;;;;;17.83;6.70;;;3.90;80.80;;;;;;4916569;29;20024;-81
2020/12/14 05:01:09;;;;;;;14.23;6.78;;;3.90;80.80;;;;;;4905125;29;20028;-81
2020/12/14 05:03:35;;;;;;;16.27;6.07;;;4.00;80.90;;;;;;4891246;29;20111;-81
2020/12/14 05:06:00;;;;;;;18.52;7.88;;;4.00;81.60;;;;;;4903596;29;20031;-81
2020/12/14 05:08:29;;;;;;;20.40;7.60;;;4.00;80.70;;;;;;4895410;29;20084;-81
2020/12/14 05:10:56;;;;;;;16.42;7.00;;;4.00;80.70;;;;;;4909524;29;20528;-80
2020/12/14 05:13:26;;;;;;;16.67;6.43;;;4.00;80.70;;;;;;4899253;29;20067;-80
2020/12/14 05:15:52;;;;;;;17.13;7.47;;;4.10;80.90;;;;;;4900372;29;20493;-81
2020/12/14 05:18:22;;;;;;;14.38;6.47;;;4.10;80.90;;;;;;4890010;29;20040;-81
2020/12/14 05:21:00;;;;;;;17.05;6.50;;;4.20;81.00;;;;;;4903947;29;20055;-81
2020/12/14 05:23:27;;;;;;;16.27;6.85;;;4.20;81.10;;;;;;4899147;29;20028;-81
2020/12/14 05:26:06;;;;;;;15.38;7.22;;;4.30;81.20;;;;;;4899305;29;20063;-81
2020/12/14 05:28:31;;;;;;;16.60;7.38;;;4.30;81.00;;;;;;4893975;29;20028;-81
2020/12/14 05:30:57;;;;;;;18.35;8.18;;;4.30;80.80;;;;;;4914929;29;20028;-81
2020/12/14 05:33:27;;;;;;;24.25;9.02;;;4.30;80.70;;;;;;4889984;29;20029;-81
2020/12/14 05:35:53;;;;;;;21.23;9.20;;;4.30;80.80;;;;;;4900201;29;20035;-81
2020/12/14 05:38:32;;;;;;;18.58;8.52;;;4.30;80.80;;;;;;4884559;29;20024;-81
2020/12/14 05:41:03;;;;;;;17.38;7.57;;;4.40;80.90;;;;;;4907600;29;20029;-81
2020/12/14 05:43:30;;;;;;;17.95;9.07;;;4.40;80.90;;;;;;4899254;29;20028;-81
2020/12/14 05:46:12;;;;;;;16.73;7.60;;;4.40;81.00;;;;;;4884098;29;20084;-81
2020/12/14 05:48:37;;;;;;;19.38;9.02;;;4.50;81.10;;;;;;4903993;29;20087;-81
2020/12/14 05:51:06;;;;;;;19.50;9.23;;;4.50;80.80;;;;;;4899314;29;20508;-81
2020/12/14 05:53:50;;;;;;;17.77;8.52;;;4.50;80.80;;;;;;4911715;29;20039;-81
2020/12/14 05:56:17;;;;;;;20.43;9.07;;;4.50;81.00;;;;;;4918169;29;20034;-81
2020/12/14 05:58:43;;;;;;;18.52;8.90;;;4.60;81.10;;;;;;4902710;29;20276;-81
2020/12/14 06:01:09;;;;;;;20.15;8.48;;;4.60;80.90;;;;;;4906120;29;20056;-81
2020/12/14 06:03:36;;;;;;;19.08;8.57;;;4.60;80.70;;;;;;4888945;29;20115;-81
2020/12/14 06:06:08;;;;;;;21.58;9.02;;;4.50;80.50;;;;;;4902098;29;20536;-81
2020/12/14 06:08:46;;;;;;;21.08;9.13;;;4.50;80.80;;;;;;4902492;29;20485;-81
2020/12/14 06:11:23;;;;;;;18.92;9.10;;;4.60;81.10;;;;;;4919378;29;20032;-81
2020/12/14 06:13:58;;;;;;;17.27;7.88;;;4.60;81.10;;;;;;4906436;29;20024;-81
2020/12/14 06:16:26;;;;;;;18.70;8.60;;;4.70;81.00;;;;;;4918878;29;20040;-83
2020/12/14 06:18:53;;;;;;;20.20;8.93;;;4.70;81.20;;;;;;4910546;29;20385;-84
2020/12/14 06:21:21;;;;;;;20.48;8.52;;;4.80;81.30;;;;;;4908725;29;20135;-81
2020/12/14 06:23:49;;;;;;;19.52;8.48;;;4.80;81.30;;;;;;4908513;29;20027;-81
2020/12/14 06:26:15;;;;;;;16.30;8.00;;;4.80;81.10;;;;;;4911946;29;20052;-81
2020/12/14 06:28:48;;;;;;;23.05;9.40;;;5.00;81.30;;;;;;4916053;29;20027;-84
2020/12/14 06:31:31;;;;;;;20.60;8.20;;;4.90;81.00;;;;;;4913784;29;20119;-89
2020/12/14 06:33:56;;;;;;;21.05;9.35;;;4.90;81.10;;;;;;4908208;29;20090;-82
2020/12/14 06:36:24;;;;;;;18.38;8.95;;;5.00;80.90;;;;;;4918845;29;20516;-81
2020/12/14 06:38:52;;;;;;;19.23;8.82;;;5.00;81.00;;;;;;4913480;29;20024;-81
2020/12/14 06:41:20;;;;;;;24.83;10.82;;;5.00;81.00;;;;;;4902077;29;20048;-80
2020/12/14 06:43:47;;;;;;;17.92;8.35;;;5.00;81.00;;;;;;4901672;29;20021;-80
2020/12/14 06:46:13;;;;;;;18.40;8.02;;;5.00;81.00;;;;;;4918878;29;20469;-80
2020/12/14 06:48:41;;;;;;;17.23;7.97;;;5.00;80.90;;;;;;4901253;29;20036;-82
2020/12/14 06:51:11;;;;;;;20.92;7.85;;;5.00;80.90;;;;;;4910020;29;20063;-87
2020/12/14 06:53:50;;;;;;;20.25;8.40;;;5.10;81.00;;;;;;4914886;29;20026;-83
2020/12/14 06:56:27;;;;;;;18.58;8.40;;;5.00;80.60;;;;;;4919143;29;20020;-84
2020/12/14 06:58:54;;;;;;;17.83;8.27;;;4.70;80.70;;;;;;4901654;29;20032;-83
2020/12/14 07:01:57;;;;;;;15.75;7.60;;;5.00;80.80;;;;;;4907827;29;20060;-83
2020/12/14 07:04:28;;;;;;;18.95;9.18;;;5.00;80.80;;;;;;4927547;29;20032;-82
2020/12/14 07:06:55;;;;;;;18.48;8.02;;;5.10;80.90;;;;;;4901723;29;20024;-81
2020/12/14 07:09:30;;;;;;;20.33;9.38;;;4.90;80.90;;;;;;4917353;29;21972;-84
2020/12/14 07:12:16;;;;;;;18.77;8.18;;;5.00;81.10;;;;;;4918864;29;20457;-82
2020/12/14 07:14:57;;;;;;;17.10;7.30;;;5.10;81.10;;;;;;4911507;29;20540;-83
2020/12/14 07:17:23;;;;;;;19.73;8.60;;;5.10;81.00;;;;;;4915406;29;20039;-84
2020/12/14 07:19:54;;;;;;;19.60;8.55;;;5.10;80.80;;;;;;4902220;29;20468;-83
2020/12/14 07:22:24;;;;;;;16.65;8.50;;;5.10;80.80;;;;;;4908563;29;20091;-84
2020/12/14 07:25:04;;;;;;;18.63;8.90;;;5.10;80.80;;;;;;4914380;29;20080;-83
2020/12/14 07:27:32;;;;;;;17.95;8.68;;;5.10;80.60;;;;;;4914429;29;20032;-84
2020/12/14 07:30:11;;;;;;;19.48;9.13;;;5.10;80.80;;;;;;4912672;29;20557;-83
2020/12/14 07:32:40;;;;;;;16.60;7.97;;;5.10;80.90;;;;;;4919243;29;20066;-83
2020/12/14 07:35:09;;;;;;;18.88;8.70;;;5.10;81.10;;;;;;4919195;29;20082;-82
2020/12/14 07:37:49;;;;;;;18.58;8.73;;;5.20;81.10;;;;;;4918542;29;20374;-84
2020/12/14 07:40:20;;;;;;;15.27;7.57;;;5.20;81.10;;;;;;4905055;29;20055;-83
2020/12/14 07:42:49;;;;;;;16.83;8.00;;;5.30;81.10;;;;;;4907157;29;20040;-84
2020/12/14 07:45:17;;;;;;;18.05;7.72;;;5.30;81.30;;;;;;4910694;29;20032;-82
2020/12/14 07:47:44;;;;;;;14.75;7.20;;;5.40;81.40;;;;;;4900807;29;20493;-85
2020/12/14 07:50:15;;;;;;;15.57;6.95;;;5.40;81.30;;;;;;4912420;29;20496;-83
2020/12/14 07:52:42;;;;;;;17.40;7.60;;;5.50;81.50;;;;;;4900918;29;20035;-85
2020/12/14 07:55:12;;;;;;;14.75;7.18;;;5.60;81.50;;;;;;4914302;29;20016;-86
2020/12/14 07:57:40;;;;;;;17.55;7.60;;;5.60;81.50;;;;;;4911354;29;20055;-85
2020/12/14 08:00:21;;;;;;;16.63;7.55;;;5.80;81.60;;;;;;4913923;29;20119;-84
2020/12/14 08:03:00;;;;;;;15.20;7.10;;;5.70;81.50;;;;;;4912866;29;20036;-84
2020/12/14 08:05:26;;;;;;;16.55;7.80;;;5.70;81.20;;;;;;4912121;29;20028;-84
2020/12/14 08:08:05;;;;;;;13.93;6.85;;;6.00;81.60;;;;;;4890552;29;20032;-85
2020/12/14 08:10:34;;;;;;;15.82;6.72;;;5.80;81.60;;;;;;4911772;29;20032;-85
2020/12/14 08:13:13;;;;;;;16.00;7.32;;;5.90;81.60;;;;;;4912469;29;20060;-86
2020/12/14 08:15:43;;;;;;;9.77;4.32;;;6.00;81.80;;;;;;4922864;29;20462;-87
2020/12/14 08:19:03;;;;;;;15.10;7.10;;;6.10;81.70;;;;;;4911206;29;20027;-85
2020/12/14 08:21:34;;;;;;;14.23;7.25;;;6.10;81.60;;;;;;4916167;29;20037;-86
2020/12/14 08:24:39;;;;;;;15.38;6.63;;;6.20;81.50;;;;;;4900946;29;20119;-87
2020/12/14 08:31:01;;;;;;;13.35;6.18;;;6.30;82.00;;;;;;4914324;29;20032;-84
2020/12/14 08:33:40;;;;;;;;;;;;;;;;;;;;;
2020/12/14 08:36:11;;;;;;;14.60;6.57;;;6.50;81.50;;;;;;4916409;29;20020;-83
2020/12/14 08:38:37;;;;;;;13.85;6.07;;;6.50;81.50;;;;;;4884632;29;20040;-84
2020/12/14 08:41:07;;;;;;;12.45;6.25;;;6.50;81.50;;;;;;4912782;29;20374;-84
2020/12/14 08:43:35;;;;;;;13.27;6.25;;;6.60;81.90;;;;;;4907581;29;20024;-85
2020/12/14 08:46:09;;;;;;;13.15;6.05;;;6.70;81.50;;;;;;4906242;29;20016;-85
2020/12/14 08:48:56;;;;;;;13.80;6.10;;;6.70;81.90;;;;;;4913081;29;20476;-85
2020/12/14 08:51:30;;;;;;;13.13;6.28;;;6.80;81.90;;;;;;4909164;29;20040;-84
2020/12/14 08:54:12;;;;;;;;;;;6.80;81.70;;;;;;4911924;29;20058;-86
2020/12/14 08:56:41;;;;;;;12.23;5.35;;;6.90;81.70;;;;;;4908085;29;19970;-85
2020/12/14 08:59:22;;;;;;;12.10;5.43;;;6.90;81.50;;;;;;4907125;29;20047;-84
2020/12/14 09:02:18;;;;;;;;;;;;;;;;;;;;;
2020/12/14 09:04:45;;;;;;;14.23;6.53;;;7.00;81.50;;;;;;4916313;29;20020;-85
2020/12/14 09:07:21;;;;;;;13.40;5.63;;;7.10;81.70;;;;;;4888937;29;20509;-84
2020/12/14 09:09:47;;;;;;;12.73;5.63;;;7.10;81.50;;;;;;4911863;29;20021;-84
2020/12/14 09:15:28;;;;;;;11.82;5.50;;;7.10;81.60;;;;;;4832474;29;20054;-86
2020/12/14 09:18:10;;;;;;;11.70;5.07;;;7.20;81.40;;;;;;4880983;29;20044;-88
2020/12/14 09:20:42;;;;;;;12.57;5.70;;;7.20;81.40;;;;;;4898911;29;20420;-87
2020/12/14 09:23:17;;;;;;;11.93;5.63;;;7.30;81.70;;;;;;4884923;29;20047;-86
2020/12/14 09:25:44;;;;;;;12.65;5.63;;;7.40;81.70;;;;;;4898589;29;20021;-86
2020/12/14 09:28:10;;;;;;;12.50;6.00;;;7.30;81.50;;;;;;4900147;29;20024;-87
2020/12/14 09:30:35;;;;;;;11.90;5.55;;;7.40;82.50;;;;;;4901480;29;20465;-87
2020/12/14 09:33:03;;;;;;;11.63;5.03;;;7.50;81.80;;;;;;4890478;29;20048;-87
2020/12/14 09:35:29;;;;;;;12.38;5.45;;;7.50;81.70;;;;;;4887368;29;20478;-86
2020/12/14 09:37:54;;;;;;;13.18;5.55;;;7.50;81.70;;;;;;4891553;29;20032;-86
2020/12/14 09:40:20;;;;;;;11.35;4.93;;;7.60;81.80;;;;;;4901133;29;20052;-85
2020/12/14 09:42:47;;;;;;;11.63;5.43;;;7.70;82.00;;;;;;4901355;29;20478;-86
2020/12/14 09:45:13;;;;;;;11.18;4.97;;;7.80;82.20;;;;;;4902639;29;20079;-86
2020/12/14 09:47:40;;;;;;;11.73;5.72;;;7.90;81.90;;;;;;4901593;29;20123;-85
2020/12/14 09:50:13;;;;;;;11.70;5.35;;;7.90;81.80;;;;;;4901024;29;20469;-88
2020/12/14 09:52:39;;;;;;;13.25;5.88;;;7.90;81.30;;;;;;4902857;29;20465;-87
2020/12/14 09:55:05;;;;;;;10.48;4.68;;;8.00;81.90;;;;;;4901808;29;20031;-88
2020/12/14 09:57:34;;;;;;;11.15;5.35;;;8.00;81.90;;;;;;4900259;29;20020;-85
2020/12/14 10:00:03;;;;;;;11.32;5.22;;;8.10;81.90;;;;;;4900553;29;20184;-86
2020/12/14 10:02:29;;;;;;;12.02;5.53;;;8.10;81.50;;;;;;4900005;29;20044;-88
2020/12/14 10:04:55;;;;;;;11.43;5.95;;;8.10;81.40;;;;;;4900640;29;20024;-90
2020/12/14 10:07:21;;;;;;;11.15;5.72;;;8.20;81.60;;;;;;4900730;29;20116;-87
2020/12/14 10:09:47;;;;;;;11.27;5.43;;;8.20;81.70;;;;;;4900323;29;20084;-86
2020/12/14 10:12:13;;;;;;;12.43;5.60;;;8.30;81.70;;;;;;4900577;29;20029;-86
2020/12/14 10:14:38;;;;;;;12.38;5.60;;;8.40;81.50;;;;;;4905124;29;20048;-90
2020/12/14 10:17:04;;;;;;;10.95;5.30;;;8.40;81.40;;;;;;4891591;29;20414;-92
2020/12/14 10:19:33;;;;;;;11.93;5.30;;;8.30;81.00;;;;;;4890880;29;20033;-88
2020/12/14 10:22:00;;;;;;;9.77;3.95;;;8.40;81.40;;;;;;4900471;29;20037;-84
2020/12/14 10:24:26;;;;;;;12.07;5.63;;;8.40;81.40;;;;;;4900985;29;20088;-84
2020/12/14 10:26:52;;;;;;;14.65;4.28;;;8.40;81.60;;;;;;4901874;29;20024;-84
2020/12/14 10:29:17;;;;;;;10.55;5.45;;;8.50;81.50;;;;;;4899628;29;20029;-87
2020/12/14 10:31:45;;;;;;;14.13;6.38;;;8.50;81.70;;;;;;4900114;29;20036;-88
2020/12/14 10:34:11;;;;;;;10.82;5.07;;;8.60;81.80;;;;;;4900103;29;20028;-87
2020/12/14 10:36:40;;;;;;;11.43;5.15;;;8.70;81.70;;;;;;4900199;29;20123;-87
2020/12/14 10:39:07;;;;;;;11.18;5.35;;;8.70;81.40;;;;;;4899991;29;20115;-86
2020/12/14 10:41:33;;;;;;;10.60;5.22;;;8.70;81.80;;;;;;4899893;29;20123;-87
2020/12/14 10:44:01;;;;;;;11.95;4.85;;;8.80;81.30;;;;;;4887949;29;20179;-87
2020/12/14 10:46:27;;;;;;;11.80;4.82;;;8.80;81.50;;;;;;4899173;29;20103;-88
2020/12/14 10:48:53;;;;;;;11.43;4.97;;;9.00;82.30;;;;;;4899661;29;20053;-88
2020/12/14 10:51:19;;;;;;;10.20;4.95;;;9.20;82.10;;;;;;4900800;29;20035;-88
2020/12/14 10:53:44;;;;;;;11.52;5.55;;;9.20;81.70;;;;;;4899556;29;20131;-89
2020/12/14 10:56:10;;;;;;;10.10;4.68;;;9.40;82.40;;;;;;4898975;29;20478;-88
2020/12/14 10:58:38;;;;;;;10.63;4.80;;;9.60;82.40;;;;;;4899711;29;20168;-90
2020/12/14 11:01:07;;;;;;;10.95;5.00;;;9.70;82.50;;;;;;4888989;29;20040;-88
2020/12/14 11:03:33;;;;;;;10.57;5.10;;;9.80;81.40;;;;;;4899137;29;20402;-88
2020/12/14 11:05:59;;;;;;;10.82;4.95;;;9.90;82.30;;;;;;4901108;29;20028;-89
2020/12/14 11:08:24;;;;;;;10.70;4.80;;;10.00;82.20;;;;;;4899503;29;20030;-85
2020/12/14 11:10:51;;;;;;;11.77;5.10;;;10.10;81.50;;;;;;4900098;29;20028;-86
2020/12/14 11:13:17;;;;;;;10.80;5.35;;;10.00;80.90;;;;;;4898450;29;20068;-85
2020/12/14 11:15:43;;;;;;;9.98;4.53;;;10.00;80.90;;;;;;4900885;29;20094;-85
2020/12/14 11:18:09;;;;;;;11.38;5.20;;;10.10;81.50;;;;;;4899669;29;20485;-86
2020/12/14 11:20:35;;;;;;;11.20;5.60;;;10.10;81.40;;;;;;4910692;29;20021;-87
2020/12/14 11:23:01;;;;;;;10.05;5.15;;;10.20;82.00;;;;;;4905448;29;20032;-87
2020/12/14 11:25:26;;;;;;;11.23;5.22;;;10.20;80.80;;;;;;4899345;29;20035;-87
2020/12/14 11:27:52;;;;;;;9.80;5.10;;;10.20;81.20;;;;;;4906208;29;20031;-87
2020/12/14 11:30:18;;;;;;;10.80;5.03;;;10.20;80.90;;;;;;4899421;29;20081;-87
2020/12/14 11:32:44;;;;;;;10.25;4.80;;;10.20;80.80;;;;;;4899962;29;20087;-88
2020/12/14 11:35:10;;;;;;;9.73;4.75;;;10.20;80.80;;;;;;4903632;29;20048;-87
2020/12/14 11:37:35;;;;;;;10.05;4.80;;;10.10;80.70;;;;;;4900307;29;20064;-87
2020/12/14 11:40:03;;;;;;;9.90;4.93;;;10.10;80.60;;;;;;4902760;29;20028;-86
2020/12/14 11:42:29;;;;;;;10.80;5.10;;;10.10;81.20;;;;;;4906313;29;20503;-87
2020/12/14 11:44:55;;;;;;;11.13;5.28;;;10.30;81.00;;;;;;4902316;29;20047;-87
2020/12/14 11:47:23;;;;;;;10.90;5.25;;;10.00;80.00;;;;;;4900821;29;20032;-87
2020/12/14 11:49:48;;;;;;;10.90;5.15;;;10.20;80.80;;;;;;4902463;29;20031;-87
2020/12/14 11:52:14;;;;;;;11.23;5.13;;;10.10;81.20;;;;;;4901428;29;20028;-87
2020/12/14 11:54:40;;;;;;;10.65;5.28;;;10.10;81.30;;;;;;4901288;29;20483;-87
2020/12/14 11:57:05;;;;;;;9.82;5.13;;;10.40;82.00;;;;;;4899281;29;20035;-87
2020/12/14 11:59:31;;;;;;;12.10;5.03;;;10.40;81.20;;;;;;4902193;29;20118;-87
2020/12/14 12:01:57;;;;;;;10.43;4.95;;;10.50;81.10;;;;;;4898458;29;20051;-88
2020/12/14 12:04:23;;;;;;;9.45;4.63;;;10.30;80.80;;;;;;4898921;29;20044;-87
2020/12/14 12:06:49;;;;;;;9.43;4.55;;;10.30;80.20;;;;;;4901731;29;20083;-88
2020/12/14 12:09:14;;;;;;;10.07;4.85;;;10.40;81.10;;;;;;4893689;29;20078;-83
2020/12/14 12:11:40;;;;;;;9.52;4.88;;;10.50;80.90;;;;;;4892194;29;20111;-86
2020/12/14 12:14:06;;;;;;;10.98;5.22;;;10.40;80.60;;;;;;4904404;29;20039;-88
2020/12/14 12:16:32;;;;;;;10.38;5.10;;;10.30;79.40;;;;;;4909951;29;20031;-87
2020/12/14 12:18:57;;;;;;;10.02;4.93;;;10.10;78.90;;;;;;4899360;29;20041;-88
2020/12/14 12:21:23;;;;;;;12.23;5.00;;;10.00;79.70;;;;;;4882153;29;20385;-88
2020/12/14 12:23:49;;;;;;;10.27;4.85;;;10.10;80.50;;;;;;4881402;29;20025;-87
2020/12/14 12:26:16;;;;;;;11.13;5.18;;;10.20;80.70;;;;;;4880467;29;20025;-87
2020/12/14 12:28:42;;;;;;;10.77;4.80;;;10.20;80.20;;;;;;4881771;29;20025;-87
2020/12/14 12:31:08;;;;;;;11.93;5.60;;;10.00;79.00;;;;;;4882188;29;20032;-88
2020/12/14 12:33:34;;;;;;;10.73;4.78;;;9.80;79.00;;;;;;4881476;29;20363;-88
2020/12/14 12:35:59;;;;;;;9.27;4.57;;;9.70;79.90;;;;;;4881609;29;20039;-88
2020/12/14 12:38:25;;;;;;;10.20;4.65;;;9.80;80.00;;;;;;4881299;29;20516;-89
2020/12/14 12:40:51;;;;;;;8.98;4.15;;;9.70;79.90;;;;;;4881667;29;20036;-90
2020/12/14 12:43:17;;;;;;;9.57;4.28;;;9.80;80.70;;;;;;4868592;29;20043;-90
2020/12/14 12:45:43;;;;;;;10.70;4.72;;;9.90;80.50;;;;;;4882169;29;20028;-88
2020/12/14 12:48:09;;;;;;;10.75;5.70;;;9.90;80.00;;;;;;4881974;29;20377;-89
2020/12/14 12:50:35;;;;;;;12.60;6.20;;;10.10;81.50;;;;;;4882008;29;20029;-88
2020/12/14 12:53:02;;;;;;;10.75;5.57;;;10.30;81.90;;;;;;4882093;29;20084;-89
2020/12/14 12:55:27;;;;;;;10.85;5.30;;;10.60;82.70;;;;;;4882792;29;20052;-89
2020/12/14 13:01:29;;;;;;;10.20;5.00;;;11.00;81.60;;;;;;4849494;29;20562;-87
2020/12/14 13:04:15;;;;;;;10.80;4.97;;;11.30;81.20;;;;;;4870049;29;20067;-89